Airfield :
LOGIN :

Register | Disclaimer

   EN    FR    IT 

 










Legend :    VFR   Marginal VFR   IFR   Intensive IFR   Very Intensive IFR
Visi :
Ceiling :
>= 8 km
>= 3000ft
5 to 8 km
1000 to 3000 ft
1500m to 5 km
500 to 1000 ft
800 to 1500m
200 to 500 ft
< 800m
< 200 ft
Symbols :   Thunderstorms  Fog  Heavy snow  Heavy precipitations  Wind > 20 kt
SIGMETs :     Misc.  Thunderstorms  Icing  Turbulence  Mountain Waves  Volcanic Ashes







- Airport Elevation : 158 ft
- IATA code : QAR


EHDL - Deelen Airbase

CURRENT METAR :
  • 160825Z AUTO 21016KT 160V250 3600 BR FEW005 BKN007 OVC008 06/05 Q1009 YLO

EXPIRED METARs :
  • 160755Z AUTO 22014KT 170V260 4500 -DZ SCT007 BKN008 BKN009 06/05 Q1009 REDZ GRN
  • 160725Z AUTO 22014KT 170V260 7000 BR SCT007 BKN009 OVC011 06/05 Q1009 GRN
  • 160655Z AUTO 22014KT 190V260 8000 BR SCT005 BKN006 OVC008 06/06 Q1009 YLO
  • 160625Z AUTO 22013G23KT 180V260 5000 BR FEW005 BKN006 OVC007 06/06 Q1009 YLO
  • 160555Z AUTO 22015KT 160V260 3200 -DZ BKN004 BKN005 OVC006 06/06 Q1010 REDZ YLO

Expired Forecast.
No reported NOTAMs for that airfield.



MET'MAP, your aeronautical weather chart ! - Copyright ORBIFLY December 2007 - Disclaimer

ORBIFLY MET'MAP TEAM :

Programming & Development : Alexandra Zaïnal
Concept & Development : Baudouin d'Aumeries
Co-Development & Prog : Marc-Olivier Méhu
Technical & hardware support : Manuel Goepfert

Contact : metmap@orbifly.com




SOURCES & CREDITS :

   NOAA